sensor_id;sensor_type;location;lat;lon;timestamp;pressure;altitude;pressure_sealevel;temperature;humidity
24160;BME280;62385;41.594;23.808;2023-12-04T00:01:21;95476.69;;;8.46;91.11
24160;BME280;62385;41.594;23.808;2023-12-04T00:03:46;95507.72;;;8.70;91.27
24160;BME280;62385;41.594;23.808;2023-12-04T00:06:12;95496.59;;;8.58;90.44
24160;BME280;62385;41.594;23.808;2023-12-04T00:08:38;95486.28;;;8.47;91.25
24160;BME280;62385;41.594;23.808;2023-12-04T00:11:05;95493.06;;;8.50;92.63
24160;BME280;62385;41.594;23.808;2023-12-04T00:13:31;95499.78;;;8.70;92.02
24160;BME280;62385;41.594;23.808;2023-12-04T00:15:57;95523.44;;;8.71;92.67
24160;BME280;62385;41.594;23.808;2023-12-04T00:18:27;95518.16;;;8.71;88.30
24160;BME280;62385;41.594;23.808;2023-12-04T00:20:52;95516.25;;;8.56;88.69
24160;BME280;62385;41.594;23.808;2023-12-04T00:23:18;95510.94;;;8.48;88.17
24160;BME280;62385;41.594;23.808;2023-12-04T00:25:43;95512.63;;;8.57;89.35
24160;BME280;62385;41.594;23.808;2023-12-04T00:28:09;95503.66;;;8.50;89.12
24160;BME280;62385;41.594;23.808;2023-12-04T00:30:35;95516.69;;;8.43;90.81
24160;BME280;62385;41.594;23.808;2023-12-04T00:33:00;95544.13;;;8.68;88.11
24160;BME280;62385;41.594;23.808;2023-12-04T00:35:26;95561.84;;;8.75;86.64
24160;BME280;62385;41.594;23.808;2023-12-04T00:37:51;95547.72;;;8.67;86.49
24160;BME280;62385;41.594;23.808;2023-12-04T00:40:17;95564.41;;;8.59;86.18
24160;BME280;62385;41.594;23.808;2023-12-04T00:42:43;95526.84;;;8.30;86.76
24160;BME280;62385;41.594;23.808;2023-12-04T00:45:09;95523.50;;;8.54;85.14
24160;BME280;62385;41.594;23.808;2023-12-04T00:47:34;95539.94;;;8.31;84.43
24160;BME280;62385;41.594;23.808;2023-12-04T00:50:00;95554.72;;;8.42;87.50
24160;BME280;62385;41.594;23.808;2023-12-04T00:52:26;95536.53;;;8.21;89.83
24160;BME280;62385;41.594;23.808;2023-12-04T00:54:51;95524.31;;;8.28;90.40
24160;BME280;62385;41.594;23.808;2023-12-04T00:57:17;95528.97;;;8.26;90.62
24160;BME280;62385;41.594;23.808;2023-12-04T00:59:43;95543.69;;;8.55;91.05
24160;BME280;62385;41.594;23.808;2023-12-04T01:02:08;95560.41;;;8.55;91.86
24160;BME280;62385;41.594;23.808;2023-12-04T01:04:34;95538.19;;;8.40;90.83
24160;BME280;62385;41.594;23.808;2023-12-04T01:06:59;95528.56;;;8.39;88.91
24160;BME280;62385;41.594;23.808;2023-12-04T01:09:25;95555.63;;;8.33;90.17
24160;BME280;62385;41.594;23.808;2023-12-04T01:11:54;95570.94;;;8.47;89.88
24160;BME280;62385;41.594;23.808;2023-12-04T01:14:20;95499.94;;;7.91;88.76
24160;BME280;62385;41.594;23.808;2023-12-04T01:16:46;95583.69;;;8.08;90.49
24160;BME280;62385;41.594;23.808;2023-12-04T01:19:13;95591.38;;;8.19;91.11
24160;BME280;62385;41.594;23.808;2023-12-04T01:21:38;95573.16;;;8.16;90.60
24160;BME280;62385;41.594;23.808;2023-12-04T01:24:04;95588.28;;;8.24;91.32
24160;BME280;62385;41.594;23.808;2023-12-04T01:26:30;95566.69;;;8.11;90.29
24160;BME280;62385;41.594;23.808;2023-12-04T01:28:56;95547.28;;;8.02;90.17
24160;BME280;62385;41.594;23.808;2023-12-04T01:31:21;95537.75;;;8.09;90.86
24160;BME280;62385;41.594;23.808;2023-12-04T01:33:47;95544.88;;;7.91;92.33
24160;BME280;62385;41.594;23.808;2023-12-04T01:36:13;95526.22;;;7.93;90.64
24160;BME280;62385;41.594;23.808;2023-12-04T01:38:38;95543.34;;;8.24;90.97
24160;BME280;62385;41.594;23.808;2023-12-04T01:41:05;95548.13;;;8.28;90.58
24160;BME280;62385;41.594;23.808;2023-12-04T01:43:30;95534.50;;;8.15;90.50
24160;BME280;62385;41.594;23.808;2023-12-04T01:45:57;95557.63;;;8.13;92.11
24160;BME280;62385;41.594;23.808;2023-12-04T01:48:23;95564.81;;;8.47;87.30
24160;BME280;62385;41.594;23.808;2023-12-04T01:50:51;95550.25;;;8.43;83.06
24160;BME280;62385;41.594;23.808;2023-12-04T01:53:17;95558.50;;;8.22;83.92
24160;BME280;62385;41.594;23.808;2023-12-04T01:55:43;95555.03;;;8.21;82.73
24160;BME280;62385;41.594;23.808;2023-12-04T01:58:09;95589.03;;;8.34;81.47
24160;BME280;62385;41.594;23.808;2023-12-04T02:00:36;95585.88;;;8.13;82.32
24160;BME280;62385;41.594;23.808;2023-12-04T02:03:02;95592.84;;;7.96;84.68
24160;BME280;62385;41.594;23.808;2023-12-04T02:05:28;95582.19;;;8.06;83.37
24160;BME280;62385;41.594;23.808;2023-12-04T02:07:54;95592.00;;;8.13;81.47
24160;BME280;62385;41.594;23.808;2023-12-04T02:10:21;95597.28;;;8.13;78.73
24160;BME280;62385;41.594;23.808;2023-12-04T02:12:48;95589.28;;;7.87;80.16
24160;BME280;62385;41.594;23.808;2023-12-04T02:15:13;95568.59;;;7.83;83.47
24160;BME280;62385;41.594;23.808;2023-12-04T02:17:41;95582.44;;;7.95;86.60
24160;BME280;62385;41.594;23.808;2023-12-04T02:20:08;95565.72;;;7.59;85.49
24160;BME280;62385;41.594;23.808;2023-12-04T02:22:34;95550.13;;;7.48;87.16
24160;BME280;62385;41.594;23.808;2023-12-04T02:25:00;95569.22;;;7.77;86.86
24160;BME280;62385;41.594;23.808;2023-12-04T02:27:38;95588.69;;;7.76;86.53
24160;BME280;62385;41.594;23.808;2023-12-04T02:30:08;95562.44;;;7.57;86.61
24160;BME280;62385;41.594;23.808;2023-12-04T02:32:43;95570.81;;;7.70;87.23
24160;BME280;62385;41.594;23.808;2023-12-04T02:35:11;95566.13;;;7.64;87.70
24160;BME280;62385;41.594;23.808;2023-12-04T02:37:40;95554.25;;;7.68;89.04
24160;BME280;62385;41.594;23.808;2023-12-04T02:40:06;95572.44;;;7.71;89.09
24160;BME280;62385;41.594;23.808;2023-12-04T02:42:32;95591.72;;;7.81;89.30
24160;BME280;62385;41.594;23.808;2023-12-04T02:44:58;95571.19;;;7.57;88.88
24160;BME280;62385;41.594;23.808;2023-12-04T02:47:24;95576.69;;;7.64;89.08
24160;BME280;62385;41.594;23.808;2023-12-04T02:49:49;95582.09;;;7.62;89.13
24160;BME280;62385;41.594;23.808;2023-12-04T02:52:15;95593.25;;;7.38;91.28
24160;BME280;62385;41.594;23.808;2023-12-04T02:54:41;95587.00;;;7.39;91.17
24160;BME280;62385;41.594;23.808;2023-12-04T02:57:06;95586.19;;;7.39;91.10
24160;BME280;62385;41.594;23.808;2023-12-04T02:59:32;95588.38;;;7.43;91.17
24160;BME280;62385;41.594;23.808;2023-12-04T03:01:57;95591.50;;;7.29;92.61
24160;BME280;62385;41.594;23.808;2023-12-04T03:04:23;95591.16;;;7.24;91.40
24160;BME280;62385;41.594;23.808;2023-12-04T03:06:48;95571.91;;;7.05;91.73
24160;BME280;62385;41.594;23.808;2023-12-04T03:09:14;95605.88;;;7.17;92.08
24160;BME280;62385;41.594;23.808;2023-12-04T03:11:40;95602.28;;;7.18;90.98
24160;BME280;62385;41.594;23.808;2023-12-04T03:14:06;95611.88;;;7.19;91.59
24160;BME280;62385;41.594;23.808;2023-12-04T03:16:32;95598.06;;;6.98;91.04
24160;BME280;62385;41.594;23.808;2023-12-04T03:18:58;95620.78;;;7.09;87.96
24160;BME280;62385;41.594;23.808;2023-12-04T03:21:24;95608.94;;;7.22;87.14
24160;BME280;62385;41.594;23.808;2023-12-04T03:23:49;95617.72;;;7.40;87.44
24160;BME280;62385;41.594;23.808;2023-12-04T03:26:15;95617.25;;;7.27;86.99
24160;BME280;62385;41.594;23.808;2023-12-04T03:28:41;95601.88;;;7.13;87.10
24160;BME280;62385;41.594;23.808;2023-12-04T03:31:06;95628.38;;;7.49;87.22
24160;BME280;62385;41.594;23.808;2023-12-04T03:33:32;95633.41;;;7.42;86.93
24160;BME280;62385;41.594;23.808;2023-12-04T03:35:59;95637.06;;;7.41;86.87
24160;BME280;62385;41.594;23.808;2023-12-04T03:38:25;95625.94;;;7.37;85.91
24160;BME280;62385;41.594;23.808;2023-12-04T03:40:50;95632.84;;;7.48;86.84
24160;BME280;62385;41.594;23.808;2023-12-04T03:43:16;95630.63;;;7.43;86.50
24160;BME280;62385;41.594;23.808;2023-12-04T03:45:41;95621.22;;;7.41;87.71
24160;BME280;62385;41.594;23.808;2023-12-04T03:48:07;95644.00;;;7.60;87.59
24160;BME280;62385;41.594;23.808;2023-12-04T03:50:33;95661.06;;;7.48;87.47
24160;BME280;62385;41.594;23.808;2023-12-04T03:52:58;95660.66;;;7.42;86.83
24160;BME280;62385;41.594;23.808;2023-12-04T03:55:24;95654.19;;;7.37;87.10
24160;BME280;62385;41.594;23.808;2023-12-04T03:57:50;95626.44;;;7.23;86.42
24160;BME280;62385;41.594;23.808;2023-12-04T04:00:15;95642.72;;;7.19;86.69
24160;BME280;62385;41.594;23.808;2023-12-04T04:02:43;95652.50;;;7.36;85.93
24160;BME280;62385;41.594;23.808;2023-12-04T04:05:09;95672.50;;;7.38;86.45
24160;BME280;62385;41.594;23.808;2023-12-04T04:07:35;95672.53;;;7.29;85.85
24160;BME280;62385;41.594;23.808;2023-12-04T04:10:01;95673.56;;;7.18;87.72
24160;BME280;62385;41.594;23.808;2023-12-04T04:12:27;95635.78;;;7.18;87.53
24160;BME280;62385;41.594;23.808;2023-12-04T04:14:53;95673.88;;;7.42;88.49
24160;BME280;62385;41.594;23.808;2023-12-04T04:17:18;95677.22;;;7.45;88.99
24160;BME280;62385;41.594;23.808;2023-12-04T04:19:44;95651.47;;;7.19;88.07
24160;BME280;62385;41.594;23.808;2023-12-04T04:22:10;95680.34;;;7.21;88.78
24160;BME280;62385;41.594;23.808;2023-12-04T04:24:36;95688.94;;;7.32;89.90
24160;BME280;62385;41.594;23.808;2023-12-04T04:27:01;95671.56;;;7.30;87.84
24160;BME280;62385;41.594;23.808;2023-12-04T04:29:27;95685.94;;;7.18;87.84
24160;BME280;62385;41.594;23.808;2023-12-04T04:31:53;95683.59;;;7.15;88.98
24160;BME280;62385;41.594;23.808;2023-12-04T04:34:20;95690.13;;;7.11;89.78
24160;BME280;62385;41.594;23.808;2023-12-04T04:36:46;95684.47;;;6.96;89.90
24160;BME280;62385;41.594;23.808;2023-12-04T04:39:13;95693.22;;;6.96;90.37
24160;BME280;62385;41.594;23.808;2023-12-04T04:41:39;95690.53;;;7.16;90.48
24160;BME280;62385;41.594;23.808;2023-12-04T04:44:05;95708.97;;;7.25;90.19
24160;BME280;62385;41.594;23.808;2023-12-04T04:46:31;95710.88;;;7.33;90.50
24160;BME280;62385;41.594;23.808;2023-12-04T04:48:57;95694.03;;;7.07;91.08
24160;BME280;62385;41.594;23.808;2023-12-04T04:51:23;95707.03;;;7.27;91.32
24160;BME280;62385;41.594;23.808;2023-12-04T04:53:49;95692.78;;;7.11;91.00
24160;BME280;62385;41.594;23.808;2023-12-04T04:56:15;95724.81;;;7.25;90.90
24160;BME280;62385;41.594;23.808;2023-12-04T04:58:41;95738.59;;;7.19;90.44
24160;BME280;62385;41.594;23.808;2023-12-04T05:01:07;95678.09;;;6.99;90.86
24160;BME280;62385;41.594;23.808;2023-12-04T05:03:33;95721.69;;;7.12;89.85
24160;BME280;62385;41.594;23.808;2023-12-04T05:05:58;95733.88;;;7.13;89.95
24160;BME280;62385;41.594;23.808;2023-12-04T05:08:24;95736.13;;;7.08;90.21
24160;BME280;62385;41.594;23.808;2023-12-04T05:10:50;95724.81;;;6.79;90.69
24160;BME280;62385;41.594;23.808;2023-12-04T05:13:15;95727.84;;;6.84;90.72
24160;BME280;62385;41.594;23.808;2023-12-04T05:15:41;95730.88;;;6.89;91.30
24160;BME280;62385;41.594;23.808;2023-12-04T05:18:06;95742.72;;;6.85;91.13
24160;BME280;62385;41.594;23.808;2023-12-04T05:20:32;95733.94;;;6.94;90.97
24160;BME280;62385;41.594;23.808;2023-12-04T05:22:58;95728.84;;;6.83;90.94
24160;BME280;62385;41.594;23.808;2023-12-04T05:25:23;95736.59;;;6.84;91.75
24160;BME280;62385;41.594;23.808;2023-12-04T05:27:49;95760.34;;;6.84;91.44
24160;BME280;62385;41.594;23.808;2023-12-04T05:30:15;95739.41;;;6.83;91.32
24160;BME280;62385;41.594;23.808;2023-12-04T05:32:40;95765.50;;;6.86;91.88
24160;BME280;62385;41.594;23.808;2023-12-04T05:35:06;95749.13;;;6.73;91.17
24160;BME280;62385;41.594;23.808;2023-12-04T05:37:32;95755.94;;;6.66;91.88
24160;BME280;62385;41.594;23.808;2023-12-04T05:39:57;95771.75;;;6.66;92.05
24160;BME280;62385;41.594;23.808;2023-12-04T05:42:23;95734.13;;;6.64;91.39
24160;BME280;62385;41.594;23.808;2023-12-04T05:44:49;95777.31;;;6.91;92.01
24160;BME280;62385;41.594;23.808;2023-12-04T05:47:14;95742.31;;;6.70;90.21
24160;BME280;62385;41.594;23.808;2023-12-04T05:49:40;95767.88;;;6.70;91.32
24160;BME280;62385;41.594;23.808;2023-12-04T05:52:06;95781.88;;;6.89;91.81
24160;BME280;62385;41.594;23.808;2023-12-04T05:54:32;95789.50;;;6.92;91.68
24160;BME280;62385;41.594;23.808;2023-12-04T05:56:57;95767.75;;;6.62;90.92
24160;BME280;62385;41.594;23.808;2023-12-04T05:59:24;95794.94;;;6.81;91.92
24160;BME280;62385;41.594;23.808;2023-12-04T06:01:49;95774.25;;;6.67;91.67
24160;BME280;62385;41.594;23.808;2023-12-04T06:04:15;95804.78;;;6.89;91.54
24160;BME280;62385;41.594;23.808;2023-12-04T06:06:40;95796.88;;;6.99;89.67
24160;BME280;62385;41.594;23.808;2023-12-04T06:09:06;95786.03;;;6.63;90.56
24160;BME280;62385;41.594;23.808;2023-12-04T06:11:32;95768.84;;;6.30;91.03
24160;BME280;62385;41.594;23.808;2023-12-04T06:13:57;95802.44;;;6.47;91.06
24160;BME280;62385;41.594;23.808;2023-12-04T06:16:23;95817.00;;;6.52;91.36
24160;BME280;62385;41.594;23.808;2023-12-04T06:18:49;95817.84;;;6.62;91.02
24160;BME280;62385;41.594;23.808;2023-12-04T06:21:14;95810.63;;;6.64;90.70
24160;BME280;62385;41.594;23.808;2023-12-04T06:23:40;95779.38;;;6.59;91.21
24160;BME280;62385;41.594;23.808;2023-12-04T06:26:07;95808.38;;;6.97;90.80
24160;BME280;62385;41.594;23.808;2023-12-04T06:28:34;95821.19;;;6.83;91.01
24160;BME280;62385;41.594;23.808;2023-12-04T06:31:00;95816.06;;;6.91;90.24
24160;BME280;62385;41.594;23.808;2023-12-04T06:33:26;95821.47;;;6.89;89.97
24160;BME280;62385;41.594;23.808;2023-12-04T06:35:52;95843.06;;;7.31;89.54
24160;BME280;62385;41.594;23.808;2023-12-04T06:38:18;95832.63;;;7.39;87.62
24160;BME280;62385;41.594;23.808;2023-12-04T06:40:44;95836.78;;;7.42;85.87
24160;BME280;62385;41.594;23.808;2023-12-04T06:43:10;95825.50;;;7.50;84.45
24160;BME280;62385;41.594;23.808;2023-12-04T06:45:36;95842.72;;;7.54;84.80
24160;BME280;62385;41.594;23.808;2023-12-04T06:48:02;95815.13;;;7.38;84.97
24160;BME280;62385;41.594;23.808;2023-12-04T06:50:28;95839.75;;;7.66;85.32
24160;BME280;62385;41.594;23.808;2023-12-04T06:52:53;95837.19;;;7.57;84.77
24160;BME280;62385;41.594;23.808;2023-12-04T06:55:19;95863.09;;;7.80;84.35
24160;BME280;62385;41.594;23.808;2023-12-04T06:57:45;95845.75;;;7.68;84.67
24160;BME280;62385;41.594;23.808;2023-12-04T07:00:11;95863.53;;;7.66;85.54
24160;BME280;62385;41.594;23.808;2023-12-04T07:02:40;95867.50;;;7.53;86.73
24160;BME280;62385;41.594;23.808;2023-12-04T07:05:06;95865.97;;;7.50;87.42
24160;BME280;62385;41.594;23.808;2023-12-04T07:07:32;95851.13;;;7.39;86.50
24160;BME280;62385;41.594;23.808;2023-12-04T07:09:58;95858.56;;;7.54;86.29
24160;BME280;62385;41.594;23.808;2023-12-04T07:12:23;95879.69;;;7.73;86.29
24160;BME280;62385;41.594;23.808;2023-12-04T07:14:49;95872.00;;;7.79;85.13
24160;BME280;62385;41.594;23.808;2023-12-04T07:17:15;95878.22;;;7.88;85.77
24160;BME280;62385;41.594;23.808;2023-12-04T07:19:41;95843.09;;;7.78;85.73
24160;BME280;62385;41.594;23.808;2023-12-04T07:22:07;95871.13;;;7.88;84.63
24160;BME280;62385;41.594;23.808;2023-12-04T07:24:32;95868.66;;;8.14;82.98
24160;BME280;62385;41.594;23.808;2023-12-04T07:26:58;95869.25;;;8.08;83.14
24160;BME280;62385;41.594;23.808;2023-12-04T07:29:24;95879.25;;;8.14;82.87
24160;BME280;62385;41.594;23.808;2023-12-04T07:31:49;95873.78;;;8.16;80.92
24160;BME280;62385;41.594;23.808;2023-12-04T07:34:15;95862.56;;;8.04;81.25
24160;BME280;62385;41.594;23.808;2023-12-04T07:36:41;95875.91;;;8.12;81.50
24160;BME280;62385;41.594;23.808;2023-12-04T07:39:06;95874.72;;;8.24;81.86
24160;BME280;62385;41.594;23.808;2023-12-04T07:41:32;95856.19;;;8.34;79.06
24160;BME280;62385;41.594;23.808;2023-12-04T07:43:58;95878.88;;;8.37;78.99
24160;BME280;62385;41.594;23.808;2023-12-04T07:46:24;95874.03;;;8.32;80.19
24160;BME280;62385;41.594;23.808;2023-12-04T07:48:51;95894.03;;;8.62;79.32
24160;BME280;62385;41.594;23.808;2023-12-04T07:51:16;95896.81;;;8.43;77.90
24160;BME280;62385;41.594;23.808;2023-12-04T07:53:42;95892.25;;;8.35;77.21
24160;BME280;62385;41.594;23.808;2023-12-04T07:56:08;95894.91;;;8.35;78.62
24160;BME280;62385;41.594;23.808;2023-12-04T07:58:34;95902.59;;;8.56;79.94
24160;BME280;62385;41.594;23.808;2023-12-04T08:01:00;95903.16;;;8.77;78.10
24160;BME280;62385;41.594;23.808;2023-12-04T08:03:25;95884.41;;;8.43;77.81
24160;BME280;62385;41.594;23.808;2023-12-04T08:05:51;95910.63;;;8.37;78.87
24160;BME280;62385;41.594;23.808;2023-12-04T08:08:17;95858.56;;;8.00;78.56
24160;BME280;62385;41.594;23.808;2023-12-04T08:10:43;95916.06;;;8.62;78.67
24160;BME280;62385;41.594;23.808;2023-12-04T08:13:08;95895.75;;;8.53;77.58
24160;BME280;62385;41.594;23.808;2023-12-04T08:15:34;95915.78;;;8.65;77.77
24160;BME280;62385;41.594;23.808;2023-12-04T08:18:00;95916.16;;;8.88;76.36
24160;BME280;62385;41.594;23.808;2023-12-04T08:20:26;95891.88;;;8.75;76.08
24160;BME280;62385;41.594;23.808;2023-12-04T08:22:52;95893.63;;;8.84;75.74
24160;BME280;62385;41.594;23.808;2023-12-04T08:25:18;95919.22;;;8.93;75.19
24160;BME280;62385;41.594;23.808;2023-12-04T08:27:43;95916.00;;;8.72;74.51
24160;BME280;62385;41.594;23.808;2023-12-04T08:30:09;95889.38;;;8.91;76.15
24160;BME280;62385;41.594;23.808;2023-12-04T08:32:35;95902.88;;;8.98;76.10
24160;BME280;62385;41.594;23.808;2023-12-04T08:35:01;95928.75;;;8.86;74.53
24160;BME280;62385;41.594;23.808;2023-12-04T08:37:27;95930.09;;;9.25;74.06
24160;BME280;62385;41.594;23.808;2023-12-04T08:39:53;95922.94;;;9.36;74.70
24160;BME280;62385;41.594;23.808;2023-12-04T08:42:18;95905.03;;;9.20;73.49
24160;BME280;62385;41.594;23.808;2023-12-04T08:44:44;95920.13;;;9.02;73.40
24160;BME280;62385;41.594;23.808;2023-12-04T08:47:12;95929.84;;;8.84;73.44
24160;BME280;62385;41.594;23.808;2023-12-04T08:49:40;95934.00;;;9.57;73.16
24160;BME280;62385;41.594;23.808;2023-12-04T08:52:09;95940.38;;;9.64;74.02
24160;BME280;62385;41.594;23.808;2023-12-04T08:54:38;95934.97;;;9.73;74.71
24160;BME280;62385;41.594;23.808;2023-12-04T08:57:05;95931.66;;;9.71;73.20
24160;BME280;62385;41.594;23.808;2023-12-04T08:59:30;95929.53;;;9.75;73.09
24160;BME280;62385;41.594;23.808;2023-12-04T09:01:56;95912.88;;;9.65;73.47
24160;BME280;62385;41.594;23.808;2023-12-04T09:04:22;95904.38;;;9.79;73.53
24160;BME280;62385;41.594;23.808;2023-12-04T09:06:47;95916.13;;;9.77;74.46
24160;BME280;62385;41.594;23.808;2023-12-04T09:09:13;95914.53;;;9.66;76.06
24160;BME280;62385;41.594;23.808;2023-12-04T09:11:42;95912.88;;;9.65;74.52
24160;BME280;62385;41.594;23.808;2023-12-04T09:14:08;95899.22;;;9.16;74.05
24160;BME280;62385;41.594;23.808;2023-12-04T09:16:33;95879.25;;;9.04;74.89
24160;BME280;62385;41.594;23.808;2023-12-04T09:18:59;95901.22;;;9.14;75.42
24160;BME280;62385;41.594;23.808;2023-12-04T09:21:25;95902.56;;;9.01;75.91
24160;BME280;62385;41.594;23.808;2023-12-04T09:23:52;95888.47;;;9.00;75.52
24160;BME280;62385;41.594;23.808;2023-12-04T09:26:18;95870.94;;;8.82;77.92
24160;BME280;62385;41.594;23.808;2023-12-04T09:28:44;95880.31;;;9.11;77.35
24160;BME280;62385;41.594;23.808;2023-12-04T09:31:09;95839.38;;;9.06;76.25
24160;BME280;62385;41.594;23.808;2023-12-04T09:33:35;95842.38;;;9.28;76.06
24160;BME280;62385;41.594;23.808;2023-12-04T09:36:04;95847.44;;;9.40;74.34
24160;BME280;62385;41.594;23.808;2023-12-04T09:38:29;95876.25;;;9.60;74.13
24160;BME280;62385;41.594;23.808;2023-12-04T09:40:58;95885.78;;;9.53;75.66
24160;BME280;62385;41.594;23.808;2023-12-04T09:43:25;95840.50;;;9.21;74.47
24160;BME280;62385;41.594;23.808;2023-12-04T09:45:51;95887.59;;;9.53;72.29
24160;BME280;62385;41.594;23.808;2023-12-04T09:48:18;95875.75;;;9.65;72.03
24160;BME280;62385;41.594;23.808;2023-12-04T09:50:43;95873.06;;;9.57;72.29
24160;BME280;62385;41.594;23.808;2023-12-04T09:53:12;95876.22;;;9.86;72.17
24160;BME280;62385;41.594;23.808;2023-12-04T09:55:40;95874.09;;;9.90;71.73
24160;BME280;62385;41.594;23.808;2023-12-04T09:58:06;95859.91;;;9.47;71.59
24160;BME280;62385;41.594;23.808;2023-12-04T10:00:32;95863.53;;;9.46;70.66
24160;BME280;62385;41.594;23.808;2023-12-04T10:02:57;95842.84;;;10.01;70.14
24160;BME280;62385;41.594;23.808;2023-12-04T10:05:25;95826.28;;;10.07;70.48
24160;BME280;62385;41.594;23.808;2023-12-04T10:07:50;95863.59;;;10.48;70.86
24160;BME280;62385;41.594;23.808;2023-12-04T10:10:16;95864.22;;;10.26;70.93
24160;BME280;62385;41.594;23.808;2023-12-04T10:12:43;95842.00;;;10.01;69.37
24160;BME280;62385;41.594;23.808;2023-12-04T10:15:10;95836.91;;;9.82;70.65
24160;BME280;62385;41.594;23.808;2023-12-04T10:17:41;95840.88;;;10.11;69.48
24160;BME280;62385;41.594;23.808;2023-12-04T10:20:14;95843.47;;;10.21;68.61
24160;BME280;62385;41.594;23.808;2023-12-04T10:22:59;95848.97;;;10.36;69.04
24160;BME280;62385;41.594;23.808;2023-12-04T10:25:28;95843.09;;;10.16;68.80
24160;BME280;62385;41.594;23.808;2023-12-04T10:28:07;95848.09;;;10.27;68.75
24160;BME280;62385;41.594;23.808;2023-12-04T10:30:33;95835.41;;;10.39;69.99
24160;BME280;62385;41.594;23.808;2023-12-04T10:33:05;95839.78;;;10.64;69.41
24160;BME280;62385;41.594;23.808;2023-12-04T10:35:33;95844.06;;;10.57;68.11
24160;BME280;62385;41.594;23.808;2023-12-04T10:38:02;95838.47;;;10.68;68.63
24160;BME280;62385;41.594;23.808;2023-12-04T10:40:35;95823.19;;;10.62;67.00
24160;BME280;62385;41.594;23.808;2023-12-04T10:43:11;95826.66;;;10.54;67.38
24160;BME280;62385;41.594;23.808;2023-12-04T10:45:38;95817.69;;;10.47;67.22
24160;BME280;62385;41.594;23.808;2023-12-04T10:48:05;95817.31;;;10.42;64.97
24160;BME280;62385;41.594;23.808;2023-12-04T10:50:33;95822.13;;;10.39;67.01
24160;BME280;62385;41.594;23.808;2023-12-04T10:53:01;95818.00;;;10.60;64.82
24160;BME280;62385;41.594;23.808;2023-12-04T10:55:32;95808.44;;;10.84;65.62
24160;BME280;62385;41.594;23.808;2023-12-04T10:58:04;95824.19;;;10.77;66.30
24160;BME280;62385;41.594;23.808;2023-12-04T11:00:33;95803.63;;;10.79;62.48
24160;BME280;62385;41.594;23.808;2023-12-04T11:03:09;95794.97;;;10.77;65.61
24160;BME280;62385;41.594;23.808;2023-12-04T11:05:39;95828.53;;;10.94;66.29
24160;BME280;62385;41.594;23.808;2023-12-04T11:08:09;95822.25;;;11.11;65.91
24160;BME280;62385;41.594;23.808;2023-12-04T11:10:54;95824.56;;;11.06;65.38
24160;BME280;62385;41.594;23.808;2023-12-04T11:13:26;95817.75;;;10.88;65.61
24160;BME280;62385;41.594;23.808;2023-12-04T11:15:56;95812.09;;;11.15;65.41
24160;BME280;62385;41.594;23.808;2023-12-04T11:18:24;95811.13;;;11.08;64.14
24160;BME280;62385;41.594;23.808;2023-12-04T11:20:56;95805.97;;;10.98;65.74
24160;BME280;62385;41.594;23.808;2023-12-04T11:23:23;95815.59;;;10.91;64.73
24160;BME280;62385;41.594;23.808;2023-12-04T11:25:49;95819.25;;;11.15;66.24
24160;BME280;62385;41.594;23.808;2023-12-04T11:28:16;95815.91;;;11.45;63.51
24160;BME280;62385;41.594;23.808;2023-12-04T11:30:43;95811.59;;;11.11;64.04
24160;BME280;62385;41.594;23.808;2023-12-04T11:33:09;95796.16;;;10.99;63.06
24160;BME280;62385;41.594;23.808;2023-12-04T11:35:38;95798.78;;;11.39;62.99
24160;BME280;62385;41.594;23.808;2023-12-04T11:38:05;95805.78;;;11.40;63.50
24160;BME280;62385;41.594;23.808;2023-12-04T11:40:32;95810.78;;;11.19;62.65
24160;BME280;62385;41.594;23.808;2023-12-04T11:42:58;95806.97;;;11.22;64.93
24160;BME280;62385;41.594;23.808;2023-12-04T11:45:24;95813.09;;;11.46;64.57
24160;BME280;62385;41.594;23.808;2023-12-04T11:47:57;95814.25;;;11.36;61.59
24160;BME280;62385;41.594;23.808;2023-12-04T11:50:26;95816.91;;;10.95;64.93
24160;BME280;62385;41.594;23.808;2023-12-04T11:52:52;95807.94;;;11.45;63.35
24160;BME280;62385;41.594;23.808;2023-12-04T11:55:23;95797.47;;;11.43;63.98
24160;BME280;62385;41.594;23.808;2023-12-04T11:57:52;95802.97;;;11.34;64.86
24160;BME280;62385;41.594;23.808;2023-12-04T12:00:23;95810.06;;;11.74;62.96
24160;BME280;62385;41.594;23.808;2023-12-04T12:05:22;95797.97;;;11.39;62.98
24160;BME280;62385;41.594;23.808;2023-12-04T12:07:48;95783.66;;;11.56;63.27
24160;BME280;62385;41.594;23.808;2023-12-04T12:10:15;95804.53;;;11.99;61.42
24160;BME280;62385;41.594;23.808;2023-12-04T12:12:42;95793.25;;;11.81;63.04
24160;BME280;62385;41.594;23.808;2023-12-04T12:15:09;95800.78;;;11.62;63.68
24160;BME280;62385;41.594;23.808;2023-12-04T12:17:37;95797.97;;;11.55;61.82
24160;BME280;62385;41.594;23.808;2023-12-04T12:20:02;95799.59;;;11.72;61.91
24160;BME280;62385;41.594;23.808;2023-12-04T12:22:33;95806.97;;;11.38;61.14
24160;BME280;62385;41.594;23.808;2023-12-04T12:24:59;95800.41;;;11.65;61.48
24160;BME280;62385;41.594;23.808;2023-12-04T12:27:25;95791.28;;;11.83;60.43
24160;BME280;62385;41.594;23.808;2023-12-04T12:29:51;95779.53;;;11.37;59.75
24160;BME280;62385;41.594;23.808;2023-12-04T12:32:17;95802.25;;;11.80;59.73
24160;BME280;62385;41.594;23.808;2023-12-04T12:34:42;95791.59;;;11.88;61.33
24160;BME280;62385;41.594;23.808;2023-12-04T12:37:08;95785.31;;;11.73;63.07
24160;BME280;62385;41.594;23.808;2023-12-04T12:41:06;95814.22;;;11.76;61.99
24160;BME280;62385;41.594;23.808;2023-12-04T12:43:37;95749.59;;;11.43;63.51
24160;BME280;62385;41.594;23.808;2023-12-04T12:46:04;95798.03;;;11.94;60.22
24160;BME280;62385;41.594;23.808;2023-12-04T12:48:32;95780.78;;;11.90;60.89
24160;BME280;62385;41.594;23.808;2023-12-04T12:50:57;95780.63;;;11.83;60.90
24160;BME280;62385;41.594;23.808;2023-12-04T12:53:23;95810.56;;;11.77;62.10
24160;BME280;62385;41.594;23.808;2023-12-04T12:55:49;95798.53;;;11.97;62.61
24160;BME280;62385;41.594;23.808;2023-12-04T12:58:15;95762.56;;;11.54;62.11